Time;durP1;ratioP1;P1;durP2;ratioP2;P2;SDS_P1;SDS_P2;PMS_P1;PMS_P2;Temp;Humidity;BMP_temperature;BMP_pressure;BME280_temperature;BME280_humidity;BME280_pressure;Samples;Min_cycle;Max_cycle;Signal;HPM_P1;HPM_P2
2024/04/01 00:00:25;;;;;;;7.95;1.60;;;10.50;99.90;;;;;;5023296;28;20046;-83
2024/04/01 00:03:12;;;;;;;13.60;2.13;;;10.50;99.90;;;;;;5021718;28;20055;-83
2024/04/01 00:05:59;;;;;;;15.90;2.33;;;10.50;99.90;;;;;;5033705;28;20125;-85
2024/04/01 00:08:47;;;;;;;8.35;1.83;;;10.40;99.90;;;;;;5006220;28;20050;-83
2024/04/01 00:11:34;;;;;;;7.63;1.80;;;10.40;99.90;;;;;;5014901;28;20504;-82
2024/04/01 00:14:20;;;;;;;6.25;2.08;;;10.40;99.90;;;;;;5017777;28;20049;-81
2024/04/01 00:17:07;;;;;;;10.98;2.38;;;10.30;99.90;;;;;;5001659;28;20049;-82
2024/04/01 00:19:53;;;;;;;5.93;1.65;;;10.30;99.90;;;;;;4998760;28;20045;-84
2024/04/01 00:22:39;;;;;;;6.63;2.05;;;10.30;99.90;;;;;;5002359;28;20050;-83
2024/04/01 00:25:26;;;;;;;8.88;2.17;;;10.30;99.90;;;;;;4985632;28;20052;-83
2024/04/01 00:28:12;;;;;;;10.25;2.45;;;10.20;99.90;;;;;;5013623;28;20123;-83
2024/04/01 00:30:59;;;;;;;5.95;1.70;;;10.20;99.90;;;;;;5000764;28;20054;-84
2024/04/01 00:33:45;;;;;;;12.82;2.45;;;10.20;1.00;;;;;;5017727;28;20095;-81
2024/04/01 00:36:33;;;;;;;10.35;2.38;;;10.20;1.00;;;;;;5022765;28;20478;-83
2024/04/01 00:39:19;;;;;;;6.82;2.17;;;10.30;1.00;;;;;;4996842;28;20524;-84
2024/04/01 00:42:06;;;;;;;7.72;1.80;;;10.30;1.00;;;;;;5022394;28;20469;-83
2024/04/01 00:44:52;;;;;;;8.70;2.05;;;10.20;1.00;;;;;;5019828;28;20053;-83
2024/04/01 00:47:39;;;;;;;12.30;2.40;;;10.30;1.00;;;;;;5013503;28;20045;-83
2024/04/01 00:50:30;;;;;;;8.98;1.83;;;10.20;1.00;;;;;;5013451;28;20049;-84
2024/04/01 00:53:20;;;;;;;12.23;2.25;;;10.20;1.00;;;;;;5015023;28;20536;-83
2024/04/01 00:56:07;;;;;;;8.20;2.17;;;10.10;1.00;;;;;;5014268;28;20084;-84
2024/04/01 00:58:55;;;;;;;7.13;2.28;;;10.10;1.00;;;;;;5014162;28;20049;-82
2024/04/01 01:01:45;;;;;;;11.70;2.30;;;10.00;1.00;;;;;;5013361;28;20421;-80
2024/04/01 01:04:33;;;;;;;9.73;1.80;;;10.00;1.00;;;;;;4999388;28;20053;-85
2024/04/01 01:07:20;;;;;;;6.90;2.50;;;9.90;1.00;;;;;;5000578;28;20045;-81
2024/04/01 01:10:07;;;;;;;6.10;1.80;;;9.80;1.00;;;;;;5015800;28;20485;-82
2024/04/01 01:12:54;;;;;;;7.78;2.03;;;9.90;1.00;;;;;;5005670;28;20045;-82
2024/04/01 01:15:40;;;;;;;10.30;1.77;;;9.90;27.00;;;;;;5003843;28;20056;-82
2024/04/01 01:18:27;;;;;;;8.27;1.92;;;9.80;34.60;;;;;;5039406;28;20037;-84
2024/04/01 01:21:13;;;;;;;6.78;1.90;;;9.80;36.60;;;;;;5038784;28;20030;-82
2024/04/01 01:24:01;;;;;;;5.43;1.88;;;9.80;59.80;;;;;;5011577;28;20052;-83
2024/04/01 01:26:48;;;;;;;8.32;1.90;;;9.80;86.80;;;;;;5017635;28;20484;-83
2024/04/01 01:29:35;;;;;;;8.70;1.88;;;9.80;99.90;;;;;;5019352;28;20696;-82
2024/04/01 01:32:21;;;;;;;10.02;2.08;;;9.80;99.90;;;;;;5020251;28;20064;-81
2024/04/01 01:35:08;;;;;;;9.45;1.45;;;9.80;99.90;;;;;;5018653;28;20053;-84
2024/04/01 01:37:59;;;;;;;12.05;2.10;;;9.80;99.90;;;;;;5005978;28;20051;-84
2024/04/01 01:40:46;;;;;;;9.32;2.53;;;9.70;99.90;;;;;;5018831;28;20095;-85
2024/04/01 01:43:32;;;;;;;10.20;1.90;;;9.70;99.90;;;;;;4991794;28;20042;-85
2024/04/01 01:46:20;;;;;;;11.57;2.25;;;9.70;99.90;;;;;;5019837;28;20110;-83
2024/04/01 01:49:07;;;;;;;7.63;1.58;;;9.60;99.90;;;;;;5020800;28;20049;-83
2024/04/01 01:51:55;;;;;;;5.30;1.60;;;9.50;99.90;;;;;;5026224;28;20049;-81
2024/04/01 01:54:42;;;;;;;7.03;1.98;;;9.50;99.90;;;;;;5000053;28;20049;-83
2024/04/01 01:57:29;;;;;;;7.78;2.30;;;9.50;99.90;;;;;;4998046;28;20053;-80
2024/04/01 02:00:17;;;;;;;7.55;1.52;;;9.50;99.90;;;;;;5014120;28;20041;-81
2024/04/01 02:03:06;;;;;;;13.43;2.95;;;9.40;1.00;;;;;;5020247;28;20049;-81
2024/04/01 02:05:52;;;;;;;8.65;2.10;;;9.30;1.00;;;;;;5024895;28;20048;-84
2024/04/01 02:08:39;;;;;;;10.25;2.25;;;9.30;1.00;;;;;;5005258;28;20042;-82
2024/04/01 02:11:26;;;;;;;7.30;2.42;;;9.30;12.30;;;;;;5017624;28;20050;-84
2024/04/01 02:14:12;;;;;;;12.02;2.45;;;9.20;96.80;;;;;;5004001;28;20560;-84
2024/04/01 02:17:00;;;;;;;9.82;2.20;;;9.30;99.90;;;;;;5003448;28;20049;-82
2024/04/01 02:19:47;;;;;;;8.43;2.40;;;9.20;99.90;;;;;;5015965;28;20433;-81
2024/04/01 02:22:36;;;;;;;6.93;2.38;;;9.20;99.90;;;;;;5015982;28;20041;-83
2024/04/01 02:25:23;;;;;;;6.28;2.10;;;9.20;99.90;;;;;;5016676;28;20125;-83
2024/04/01 02:28:10;;;;;;;9.27;2.17;;;9.20;99.90;;;;;;5002071;28;20048;-83
2024/04/01 02:30:59;;;;;;;7.20;2.15;;;9.10;99.90;;;;;;5007881;28;20049;-83
2024/04/01 02:33:45;;;;;;;7.18;2.40;;;9.00;1.00;;;;;;5039490;28;20061;-84
2024/04/01 02:36:32;;;;;;;7.03;2.33;;;9.00;1.00;;;;;;5015983;28;20060;-83
2024/04/01 02:39:18;;;;;;;8.88;2.03;;;9.00;9.90;;;;;;5012493;28;20041;-80
2024/04/01 02:42:08;;;;;;;6.45;2.42;;;9.00;99.90;;;;;;5025170;28;20510;-84
2024/04/01 02:44:55;;;;;;;8.95;2.40;;;9.00;99.90;;;;;;5024383;28;20521;-85
2024/04/01 02:47:42;;;;;;;7.10;2.60;;;9.00;99.90;;;;;;5017632;28;20045;-83
2024/04/01 02:50:28;;;;;;;6.72;2.13;;;9.00;99.90;;;;;;5017644;28;20064;-83
2024/04/01 02:53:14;;;;;;;7.93;2.42;;;9.00;99.90;;;;;;5005519;28;20155;-83
2024/04/01 02:56:01;;;;;;;10.57;1.75;;;8.90;1.00;;;;;;5004601;28;20060;-84
2024/04/01 02:58:49;;;;;;;7.45;2.30;;;8.90;1.00;;;;;;5017975;28;20063;-84
2024/04/01 03:01:41;;;;;;;7.25;2.25;;;8.90;17.40;;;;;;5004230;28;20050;-85
2024/04/01 03:04:28;;;;;;;6.45;2.22;;;8.90;99.90;;;;;;5023005;28;20401;-82
2024/04/01 03:07:14;;;;;;;12.48;2.90;;;8.90;99.90;;;;;;5034525;28;20045;-81
2024/04/01 03:10:00;;;;;;;7.03;2.38;;;9.00;99.90;;;;;;5020066;28;20038;-84
2024/04/01 03:12:50;;;;;;;4.97;2.03;;;8.90;99.90;;;;;;5001919;28;20053;-81
2024/04/01 03:15:37;;;;;;;8.73;2.72;;;9.00;1.00;;;;;;5037871;28;20049;-81
2024/04/01 03:18:25;;;;;;;8.15;2.50;;;9.00;1.00;;;;;;4984583;28;20051;-81
2024/04/01 03:21:14;;;;;;;3.50;1.88;;;9.00;1.00;;;;;;5025065;28;20425;-83
2024/04/01 03:24:02;;;;;;;13.27;3.60;;;9.00;1.00;;;;;;5025209;28;20056;-83
2024/04/01 03:26:48;;;;;;;12.30;2.30;;;8.90;1.00;;;;;;4995340;28;20052;-85
2024/04/01 03:29:36;;;;;;;11.90;2.65;;;8.80;5.00;;;;;;5003000;28;20164;-83
2024/04/01 03:32:22;;;;;;;6.35;2.55;;;8.90;99.90;;;;;;5015556;28;20049;-84
2024/04/01 03:35:09;;;;;;;10.00;2.90;;;8.80;99.90;;;;;;5015359;28;20095;-85
2024/04/01 03:37:56;;;;;;;12.05;2.90;;;8.80;99.90;;;;;;4996079;28;20067;-80
2024/04/01 03:40:42;;;;;;;9.98;3.95;;;8.70;99.90;;;;;;5017408;28;20064;-84
2024/04/01 03:43:30;;;;;;;10.93;3.65;;;8.70;99.90;;;;;;5017574;28;20041;-82
2024/04/01 03:46:19;;;;;;;12.82;3.78;;;8.80;99.90;;;;;;5017518;28;20055;-81
2024/04/01 03:49:07;;;;;;;11.13;3.78;;;8.70;1.00;;;;;;5023367;28;20076;-82
2024/04/01 03:51:53;;;;;;;11.23;4.25;;;8.70;1.00;;;;;;5015851;28;20047;-84
2024/04/01 03:54:40;;;;;;;10.48;4.32;;;8.70;1.00;;;;;;5019215;28;20045;-82
2024/04/01 03:57:26;;;;;;;10.65;4.45;;;8.80;26.70;;;;;;5022334;28;20045;-85
2024/04/01 04:00:14;;;;;;;13.85;4.35;;;8.80;97.20;;;;;;5010580;28;20128;-83
2024/04/01 04:03:01;;;;;;;12.75;4.72;;;8.80;99.90;;;;;;5024688;28;20129;-82
2024/04/01 04:05:50;;;;;;;11.70;5.28;;;8.70;99.90;;;;;;5015714;28;20041;-82
2024/04/01 04:08:47;;;;;;;9.05;4.65;;;8.70;99.90;;;;;;5000840;28;20109;-82
2024/04/01 04:11:33;;;;;;;11.80;5.10;;;8.70;99.90;;;;;;5003302;28;20050;-83
2024/04/01 04:14:26;;;;;;;8.55;4.70;;;8.70;99.90;;;;;;5015714;28;20045;-85
2024/04/01 04:17:13;;;;;;;13.32;4.78;;;8.60;99.90;;;;;;5016296;28;20049;-84
2024/04/01 04:20:00;;;;;;;14.07;4.30;;;8.60;99.90;;;;;;5016614;28;20041;-84
2024/04/01 04:22:46;;;;;;;18.15;4.65;;;8.60;1.00;;;;;;4995123;28;20071;-82
2024/04/01 04:25:33;;;;;;;11.95;4.40;;;8.60;1.00;;;;;;5014205;28;20045;-84
2024/04/01 04:28:21;;;;;;;10.52;4.50;;;8.60;40.60;;;;;;5001398;28;20053;-83
2024/04/01 04:31:08;;;;;;;14.20;4.00;;;8.60;99.90;;;;;;5002503;28;20053;-84
2024/04/01 04:33:56;;;;;;;5.70;3.25;;;8.70;99.90;;;;;;5008547;28;20041;-84
2024/04/01 04:36:42;;;;;;;8.07;3.33;;;8.60;99.90;;;;;;5008526;28;20111;-83
2024/04/01 04:39:32;;;;;;;12.10;3.20;;;8.60;99.90;;;;;;5020417;28;20052;-84
2024/04/01 04:42:19;;;;;;;7.35;2.78;;;8.60;99.90;;;;;;5014858;28;20109;-79
2024/04/01 04:45:07;;;;;;;8.25;3.00;;;8.70;97.80;;;;;;5026049;28;20096;-81
2024/04/01 04:47:55;;;;;;;8.32;3.03;;;8.70;1.00;;;;;;5003483;28;20063;-83
2024/04/01 04:50:44;;;;;;;8.63;2.60;;;8.70;1.00;;;;;;5013712;28;20056;-83
2024/04/01 04:53:31;;;;;;;4.50;2.35;;;8.70;1.00;;;;;;5014818;28;20050;-82
2024/04/01 04:56:18;;;;;;;9.85;2.83;;;8.70;99.90;;;;;;5012529;28;20045;-83
2024/04/01 04:59:10;;;;;;;6.85;2.28;;;8.70;99.90;;;;;;4995551;28;20101;-83
2024/04/01 05:01:56;;;;;;;7.65;2.40;;;8.70;99.90;;;;;;5001016;28;20048;-85
2024/04/01 05:04:43;;;;;;;7.32;2.30;;;8.70;92.50;;;;;;5012565;28;20079;-84
2024/04/01 05:07:29;;;;;;;8.70;2.47;;;8.80;1.60;;;;;;5014277;28;20041;-82
2024/04/01 05:10:16;;;;;;;5.93;2.40;;;8.80;1.00;;;;;;5013440;28;20049;-83
2024/04/01 05:13:04;;;;;;;5.13;1.95;;;8.80;1.00;;;;;;4998953;28;20042;-84
2024/04/01 05:15:51;;;;;;;5.75;2.55;;;8.80;99.90;;;;;;5019841;28;20371;-82
2024/04/01 05:18:38;;;;;;;5.90;2.00;;;8.90;99.90;;;;;;5011209;28;20128;-82
2024/04/01 05:21:25;;;;;;;3.42;2.00;;;8.90;99.90;;;;;;5018988;28;20459;-81
2024/04/01 05:24:11;;;;;;;6.15;2.03;;;8.90;99.90;;;;;;5007207;28;20447;-84
2024/04/01 05:26:59;;;;;;;6.15;2.22;;;8.90;99.90;;;;;;5012740;28;20105;-83
2024/04/01 05:29:45;;;;;;;5.70;1.90;;;8.90;99.90;;;;;;5014254;28;20049;-84
2024/04/01 05:32:33;;;;;;;3.63;2.00;;;8.90;99.90;;;;;;5001723;28;20061;-81
2024/04/01 05:35:19;;;;;;;3.80;2.10;;;8.80;99.90;;;;;;5015676;28;20045;-84
2024/04/01 05:38:07;;;;;;;4.75;2.05;;;8.80;99.90;;;;;;5013923;28;20040;-86
2024/04/01 05:40:54;;;;;;;5.72;2.03;;;8.80;1.00;;;;;;5014421;28;20050;-85
2024/04/01 05:43:40;;;;;;;4.65;1.65;;;8.80;1.00;;;;;;5014349;28;20037;-84
2024/04/01 05:46:29;;;;;;;4.60;1.55;;;8.80;99.90;;;;;;5022761;28;20046;-84
2024/04/01 05:49:16;;;;;;;6.57;1.60;;;8.80;99.90;;;;;;5019198;28;20050;-82
2024/04/01 05:52:03;;;;;;;6.13;1.90;;;8.90;99.90;;;;;;5018754;28;20061;-84
2024/04/01 05:54:49;;;;;;;4.28;1.70;;;8.80;99.90;;;;;;5021895;28;20038;-83
2024/04/01 05:57:36;;;;;;;10.10;1.85;;;8.80;1.00;;;;;;5019024;28;20037;-83
2024/04/01 06:00:23;;;;;;;6.93;1.63;;;8.80;53.10;;;;;;4998699;28;20509;-83
2024/04/01 06:03:09;;;;;;;3.97;1.52;;;8.80;99.90;;;;;;5032105;28;20045;-82
2024/04/01 06:05:56;;;;;;;4.95;1.60;;;8.70;99.90;;;;;;5027758;28;20044;-83
2024/04/01 06:08:45;;;;;;;4.75;1.92;;;8.70;1.00;;;;;;5013423;28;20053;-85
2024/04/01 06:11:32;;;;;;;11.00;2.50;;;8.70;99.90;;;;;;5005865;28;20079;-82
2024/04/01 06:14:21;;;;;;;6.10;1.95;;;8.70;1.00;;;;;;5040344;28;20425;-85
2024/04/01 06:17:09;;;;;;;6.43;2.33;;;8.70;99.90;;;;;;5033390;28;20052;-82
2024/04/01 06:19:56;;;;;;;5.10;2.42;;;8.60;1.00;;;;;;5031566;28;20041;-84
2024/04/01 06:22:45;;;;;;;6.07;2.17;;;8.60;99.90;;;;;;5026056;28;20054;-82
2024/04/01 06:25:37;;;;;;;5.32;2.35;;;8.60;99.90;;;;;;5035168;28;20109;-83
2024/04/01 06:28:23;;;;;;;14.45;7.90;;;8.60;1.00;;;;;;5023248;28;20042;-83
2024/04/01 06:31:11;;;;;;;10.57;5.32;;;8.60;29.70;;;;;;5017964;28;20505;-83
2024/04/01 06:33:57;;;;;;;11.15;4.93;;;8.60;99.90;;;;;;5025863;28;20403;-86
2024/04/01 06:36:45;;;;;;;13.07;4.65;;;8.60;99.90;;;;;;5016879;28;20045;-83
2024/04/01 06:39:31;;;;;;;11.68;6.50;;;8.60;99.90;;;;;;5021994;28;20037;-82
2024/04/01 06:42:19;;;;;;;13.27;6.03;;;8.60;99.90;;;;;;5026207;28;20481;-84
2024/04/01 06:45:05;;;;;;;12.25;4.68;;;8.60;99.90;;;;;;5004297;28;20050;-84
2024/04/01 06:47:54;;;;;;;12.60;4.25;;;8.60;99.90;;;;;;5022356;28;20065;-82
2024/04/01 06:50:41;;;;;;;7.18;3.20;;;8.60;99.90;;;;;;5004131;28;20050;-83
2024/04/01 06:53:30;;;;;;;4.80;3.00;;;8.60;99.90;;;;;;5018387;28;20053;-82
2024/04/01 06:56:17;;;;;;;5.93;3.70;;;8.50;99.90;;;;;;5018337;28;20131;-83
2024/04/01 06:59:04;;;;;;;8.77;3.17;;;8.50;99.90;;;;;;5017620;28;20042;-86
2024/04/01 07:01:50;;;;;;;8.90;3.33;;;8.50;99.90;;;;;;5020129;28;20044;-82
2024/04/01 07:04:37;;;;;;;6.55;3.22;;;8.60;99.90;;;;;;5019385;28;20045;-82
2024/04/01 07:07:23;;;;;;;5.28;3.78;;;8.50;99.90;;;;;;5012895;28;20045;-83
2024/04/01 07:10:11;;;;;;;6.18;3.22;;;8.50;99.90;;;;;;5020707;28;20092;-85
2024/04/01 07:12:59;;;;;;;12.15;3.42;;;8.60;99.90;;;;;;5019055;28;20049;-83
2024/04/01 07:15:47;;;;;;;6.90;3.15;;;8.60;99.90;;;;;;5023567;28;20052;-82
2024/04/01 07:18:38;;;;;;;5.20;3.00;;;8.60;99.90;;;;;;5027505;28;20077;-83
2024/04/01 07:21:32;;;;;;;9.38;3.03;;;8.60;99.90;;;;;;5012811;28;20050;-84
2024/04/01 07:24:18;;;;;;;7.25;3.05;;;8.70;99.90;;;;;;5024806;28;20055;-83
2024/04/01 07:27:05;;;;;;;6.38;3.13;;;8.70;99.90;;;;;;5020235;28;20042;-84
2024/04/01 07:29:52;;;;;;;8.95;3.10;;;8.70;99.90;;;;;;5020171;28;20064;-84
2024/04/01 07:32:39;;;;;;;7.47;2.63;;;8.70;99.90;;;;;;5002906;28;20047;-85
2024/04/01 07:35:25;;;;;;;10.75;2.60;;;8.80;99.90;;;;;;5003177;28;20068;-83
2024/04/01 07:38:13;;;;;;;8.50;2.80;;;8.80;99.90;;;;;;5019699;28;20068;-83
2024/04/01 07:41:00;;;;;;;9.27;2.85;;;8.80;99.90;;;;;;5020809;28;20046;-83
2024/04/01 07:43:47;;;;;;;9.38;2.60;;;8.80;99.90;;;;;;5010614;28;20045;-83
2024/04/01 07:46:34;;;;;;;5.28;2.53;;;8.90;99.90;;;;;;5017788;28;20045;-83
2024/04/01 07:49:22;;;;;;;4.55;2.50;;;8.80;99.90;;;;;;5019317;28;20053;-83
2024/04/01 07:52:09;;;;;;;6.50;2.55;;;8.80;99.90;;;;;;5005902;28;20464;-82
2024/04/01 07:54:57;;;;;;;6.20;2.45;;;8.70;99.90;;;;;;5023505;28;20083;-82
2024/04/01 07:57:47;;;;;;;5.03;1.73;;;8.70;99.90;;;;;;5017215;28;20128;-83
2024/04/01 08:00:37;;;;;;;1.65;0.90;;;8.60;99.90;;;;;;5026763;28;20185;-83
2024/04/01 08:03:26;;;;;;;1.50;0.70;;;8.50;99.90;;;;;;5035974;28;20045;-83
2024/04/01 08:06:14;;;;;;;0.80;0.80;;;8.40;99.90;;;;;;5031003;28;20128;-81
2024/04/01 08:09:00;;;;;;;0.70;0.70;;;8.40;99.90;;;;;;5011598;28;20049;-83
2024/04/01 08:11:48;;;;;;;4.35;0.90;;;8.30;99.90;;;;;;5012546;28;20041;-84
2024/04/01 08:14:35;;;;;;;1.52;0.70;;;8.30;99.90;;;;;;5028408;28;20148;-83
2024/04/01 08:17:21;;;;;;;1.35;1.00;;;8.30;98.10;;;;;;5014419;28;20045;-83
2024/04/01 08:20:10;;;;;;;1.60;0.80;;;8.30;42.70;;;;;;5025076;28;20029;-86
2024/04/01 08:22:56;;;;;;;0.80;0.80;;;8.30;1.00;;;;;;5014485;28;20049;-81
2024/04/01 08:25:43;;;;;;;0.90;0.90;;;8.30;1.00;;;;;;5017706;28;20041;-83
2024/04/01 08:28:30;;;;;;;2.15;0.80;;;8.30;99.90;;;;;;5030208;28;20125;-83
2024/04/01 08:31:17;;;;;;;0.93;0.80;;;8.30;99.90;;;;;;5023669;28;20038;-82
2024/04/01 08:34:04;;;;;;;1.02;0.70;;;8.30;1.00;;;;;;5023049;28;20026;-81
2024/04/01 08:36:53;;;;;;;0.73;0.73;;;8.30;99.90;;;;;;5035376;28;20052;-83
2024/04/01 08:39:40;;;;;;;1.83;1.10;;;8.30;99.90;;;;;;5032973;28;20115;-80
2024/04/01 08:42:30;;;;;;;0.75;0.75;;;8.30;99.90;;;;;;5025516;28;20060;-80
2024/04/01 08:45:16;;;;;;;2.88;1.20;;;8.30;99.90;;;;;;5024626;28;20116;-83
2024/04/01 08:48:09;;;;;;;1.88;0.73;;;8.40;94.20;;;;;;5028556;28;20042;-81
2024/04/01 08:50:59;;;;;;;0.70;0.70;;;8.40;99.90;;;;;;5016468;28;20107;-84
2024/04/01 08:53:57;;;;;;;1.45;1.05;;;8.40;54.90;;;;;;5018525;28;20045;-84
2024/04/01 08:56:44;;;;;;;1.88;0.70;;;8.40;1.00;;;;;;5015528;28;20049;-84
2024/04/01 08:59:34;;;;;;;2.45;1.20;;;8.50;99.90;;;;;;5014119;28;20042;-81
2024/04/01 09:02:20;;;;;;;1.15;1.00;;;8.50;99.90;;;;;;5016850;28;20042;-84
2024/04/01 09:05:08;;;;;;;0.82;0.82;;;8.60;1.00;;;;;;5017780;28;20115;-84
2024/04/01 09:07:54;;;;;;;1.13;1.00;;;8.70;99.90;;;;;;5000991;28;20190;-83
2024/04/01 09:10:42;;;;;;;1.58;0.90;;;8.70;99.90;;;;;;5015875;28;20076;-85
2024/04/01 09:13:31;;;;;;;1.45;0.77;;;8.80;99.90;;;;;;5015215;28;20068;-82
2024/04/01 09:16:22;;;;;;;0.68;0.68;;;8.80;3.10;;;;;;5015442;28;20129;-86
2024/04/01 09:19:09;;;;;;;0.50;0.50;;;8.90;1.00;;;;;;5019934;28;20048;-83
2024/04/01 09:22:01;;;;;;;1.40;1.20;;;8.80;99.90;;;;;;5004328;28;20054;-85
2024/04/01 09:24:47;;;;;;;0.50;0.50;;;8.80;99.90;;;;;;5018643;28;20048;-85
2024/04/01 09:27:35;;;;;;;0.50;0.50;;;8.90;1.00;;;;;;5029199;28;20038;-83
2024/04/01 09:30:22;;;;;;;1.95;0.60;;;8.90;99.90;;;;;;5018888;28;20064;-82
2024/04/01 09:33:09;;;;;;;0.60;0.60;;;9.00;99.90;;;;;;5019757;28;20132;-80
2024/04/01 09:35:55;;;;;;;1.08;0.60;;;9.10;99.90;;;;;;5022498;28;20052;-84
2024/04/01 09:38:42;;;;;;;0.93;0.50;;;9.00;57.80;;;;;;5020565;28;20203;-85
2024/04/01 09:41:31;;;;;;;0.50;0.50;;;9.20;1.00;;;;;;5019456;28;20509;-82
2024/04/01 09:44:17;;;;;;;3.35;1.23;;;9.30;1.00;;;;;;5007752;28;20035;-82
2024/04/01 09:47:04;;;;;;;1.50;0.60;;;9.40;1.00;;;;;;5018751;28;20045;-83
2024/04/01 09:49:52;;;;;;;0.65;0.65;;;9.20;99.90;;;;;;5006281;28;20067;-83
2024/04/01 09:52:46;;;;;;;0.60;0.60;;;9.20;99.90;;;;;;5021492;28;20041;-84
2024/04/01 09:55:48;;;;;;;0.50;0.50;;;9.20;99.90;;;;;;5020261;28;20045;-85
2024/04/01 09:59:06;;;;;;;0.50;0.50;;;9.30;99.90;;;;;;5005678;28;20055;-84
2024/04/01 10:02:17;;;;;;;0.68;0.60;;;9.40;99.90;;;;;;5018028;28;20055;-83
2024/04/01 10:05:22;;;;;;;0.50;0.50;;;9.40;99.90;;;;;;5026534;28;20038;-84
2024/04/01 10:08:31;;;;;;;1.25;0.80;;;9.60;99.90;;;;;;5049607;28;20057;-84
2024/04/01 10:11:43;;;;;;;0.43;0.43;;;9.70;85.60;;;;;;5020805;28;20114;-83
2024/04/01 10:14:39;;;;;;;0.40;0.40;;;9.60;1.00;;;;;;5030570;28;20432;-83
2024/04/01 10:17:28;;;;;;;0.50;0.50;;;9.50;1.00;;;;;;5023944;28;20418;-81
2024/04/01 10:20:52;;;;;;;0.50;0.50;;;9.50;1.00;;;;;;5022576;28;20095;-83
2024/04/01 10:24:02;;;;;;;0.60;0.60;;;9.40;1.00;;;;;;5006390;28;20118;-82
2024/04/01 10:27:35;;;;;;;0.55;0.55;;;9.20;1.00;;;;;;5019609;28;20426;-85
2024/04/01 10:30:33;;;;;;;0.93;0.52;;;9.20;1.00;;;;;;5016597;28;20045;-84
2024/04/01 10:33:50;;;;;;;1.27;0.52;;;9.10;1.00;;;;;;5025625;28;20496;-85
2024/04/01 10:37:01;;;;;;;0.40;0.40;;;9.00;1.00;;;;;;5013876;28;20045;-83
2024/04/01 10:40:03;;;;;;;0.50;0.50;;;9.00;1.00;;;;;;5020552;28;20067;-84
2024/04/01 10:43:40;;;;;;;4.25;0.50;;;9.00;1.00;;;;;;5019840;28;21037;-82
2024/04/01 10:46:55;;;;;;;0.47;0.47;;;9.10;1.00;;;;;;5005934;28;20045;-83
2024/04/01 10:50:00;;;;;;;0.50;0.50;;;9.10;1.00;;;;;;5018866;28;20049;-84
2024/04/01 10:52:59;;;;;;;0.52;0.52;;;9.20;1.00;;;;;;5021492;28;20135;-84
2024/04/01 10:56:20;;;;;;;0.50;0.50;;;9.20;1.00;;;;;;5021125;28;20049;-83
2024/04/01 10:59:25;;;;;;;0.55;0.55;;;9.20;1.00;;;;;;5019765;28;20042;-82
2024/04/01 11:02:49;;;;;;;0.50;0.50;;;9.20;99.90;;;;;;5030260;28;20033;-84
2024/04/01 11:05:55;;;;;;;0.50;0.50;;;9.20;1.00;;;;;;5035151;28;20036;-82
2024/04/01 11:08:56;;;;;;;0.50;0.50;;;9.00;1.00;;;;;;5020929;28;20046;-82
2024/04/01 11:11:51;;;;;;;0.80;0.80;;;8.70;1.00;;;;;;5016262;28;20045;-84
2024/04/01 11:14:40;;;;;;;3.80;1.73;;;8.60;1.00;;;;;;5019216;28;20046;-83
2024/04/01 11:17:27;;;;;;;0.70;0.70;;;8.60;1.00;;;;;;5017268;28;20417;-86
2024/04/01 11:20:24;;;;;;;0.60;0.60;;;8.60;1.00;;;;;;5016813;28;20053;-84
2024/04/01 11:23:22;;;;;;;0.60;0.60;;;8.50;1.00;;;;;;5001939;28;20046;-83
2024/04/01 11:26:28;;;;;;;0.73;0.73;;;8.50;1.00;;;;;;5015023;28;20059;-84
2024/04/01 11:29:52;;;;;;;0.70;0.70;;;8.50;1.00;;;;;;4998744;28;20445;-83
2024/04/01 11:32:43;;;;;;;1.00;0.90;;;8.70;1.00;;;;;;5021413;28;20063;-82
2024/04/01 11:35:41;;;;;;;0.55;0.55;;;9.00;1.00;;;;;;5015388;28;20302;-81
2024/04/01 11:38:46;;;;;;;0.70;0.70;;;9.10;1.00;;;;;;5014606;28;20051;-82
2024/04/01 11:41:36;;;;;;;0.95;0.85;;;9.40;1.00;;;;;;5015088;28;20410;-79
2024/04/01 11:44:25;;;;;;;0.43;0.43;;;9.50;1.00;;;;;;5003252;28;20472;-80
2024/04/01 11:47:15;;;;;;;0.63;0.63;;;9.60;1.00;;;;;;4999708;28;20076;-81
2024/04/01 11:50:12;;;;;;;1.75;0.63;;;9.60;1.00;;;;;;5001837;28;20096;-82
2024/04/01 11:53:04;;;;;;;0.40;0.40;;;9.50;99.90;;;;;;4997310;28;20170;-83
2024/04/01 11:55:53;;;;;;;2.20;1.40;;;9.50;99.90;;;;;;5008691;28;20055;-82
2024/04/01 11:58:49;;;;;;;1.75;0.73;;;9.50;99.90;;;;;;5015688;28;20052;-84
2024/04/01 12:01:38;;;;;;;0.60;0.60;;;9.80;99.90;;;;;;5013327;28;20045;-82
2024/04/01 12:04:25;;;;;;;0.40;0.40;;;10.10;99.90;;;;;;5001706;28;20051;-80
2024/04/01 12:07:13;;;;;;;0.50;0.50;;;9.80;99.90;;;;;;5003023;28;20038;-82
2024/04/01 12:10:08;;;;;;;0.82;0.52;;;9.80;99.90;;;;;;5014827;28;20046;-80
2024/04/01 12:12:55;;;;;;;0.43;0.43;;;9.90;99.90;;;;;;5020682;28;20051;-79
2024/04/01 12:15:46;;;;;;;0.50;0.50;;;9.90;99.90;;;;;;5024051;28;20045;-82
2024/04/01 12:18:44;;;;;;;1.20;0.40;;;9.80;99.90;;;;;;5014238;28;20105;-80
2024/04/01 12:21:34;;;;;;;0.50;0.50;;;9.60;99.90;;;;;;5003749;28;20049;-78
2024/04/01 12:24:23;;;;;;;0.50;0.50;;;9.50;99.90;;;;;;5023060;28;20037;-80
2024/04/01 12:27:10;;;;;;;0.40;0.40;;;9.80;99.90;;;;;;4995277;28;20137;-80
2024/04/01 12:30:00;;;;;;;0.43;0.40;;;10.30;99.90;;;;;;5027353;28;20029;-82
2024/04/01 12:32:48;;;;;;;0.85;0.57;;;10.50;99.90;;;;;;5023856;28;20059;-80
2024/04/01 12:35:38;;;;;;;0.60;0.60;;;10.70;99.90;;;;;;5020820;28;20057;-78
2024/04/01 12:38:30;;;;;;;0.30;0.30;;;10.70;99.90;;;;;;5016366;28;20049;-82
2024/04/01 12:41:21;;;;;;;0.40;0.40;;;10.40;99.90;;;;;;5016347;28;20045;-83
2024/04/01 12:44:11;;;;;;;0.50;0.50;;;10.30;99.90;;;;;;5001712;28;20041;-79
2024/04/01 12:46:59;;;;;;;0.40;0.40;;;10.20;99.90;;;;;;5009206;28;20048;-82
2024/04/01 12:49:46;;;;;;;0.40;0.40;;;10.20;99.90;;;;;;5016882;28;20208;-80
2024/04/01 12:52:54;;;;;;;0.40;0.40;;;10.40;99.90;;;;;;5014692;28;20049;-79
2024/04/01 12:55:54;;;;;;;0.40;0.40;;;10.30;99.90;;;;;;5003452;28;20091;-81
2024/04/01 12:59:04;;;;;;;0.43;0.43;;;10.20;99.90;;;;;;5016972;28;20045;-81
2024/04/01 13:01:58;;;;;;;0.40;0.40;;;10.40;99.90;;;;;;5016430;28;20045;-83
2024/04/01 13:05:13;;;;;;;0.40;0.40;;;10.60;99.90;;;;;;5016981;28;20063;-81
2024/04/01 13:08:10;;;;;;;0.47;0.47;;;10.80;99.90;;;;;;5015475;28;20060;-82
2024/04/01 13:11:21;;;;;;;0.90;0.65;;;10.50;99.90;;;;;;5014031;28;20044;-80
2024/04/01 13:14:38;;;;;;;0.40;0.40;;;10.30;99.90;;;;;;4982866;28;20472;-81
2024/04/01 13:17:57;;;;;;;0.52;0.52;;;10.40;99.90;;;;;;5017585;28;20038;-79
2024/04/01 13:20:51;;;;;;;0.52;0.50;;;10.90;99.90;;;;;;4984844;28;20056;-83
2024/04/01 13:23:56;;;;;;;0.50;0.50;;;10.80;99.90;;;;;;5016026;28;20049;-81
2024/04/01 13:27:00;;;;;;;0.40;0.40;;;11.00;99.90;;;;;;5022675;28;20071;-80
2024/04/01 13:30:25;;;;;;;0.50;0.50;;;11.50;99.90;;;;;;4998445;28;20048;-81
2024/04/01 13:33:35;;;;;;;0.40;0.40;;;12.00;99.90;;;;;;5023204;28;20045;-80
2024/04/01 13:36:38;;;;;;;0.40;0.40;;;12.40;87.20;;;;;;5010029;28;20052;-81
2024/04/01 13:40:02;;;;;;;0.57;0.57;;;12.20;63.80;;;;;;5018908;28;20049;-81
2024/04/01 13:42:54;;;;;;;0.77;0.47;;;12.10;48.60;;;;;;5023143;28;20091;-81
2024/04/01 13:45:56;;;;;;;0.40;0.40;;;12.30;43.20;;;;;;5022240;28;20048;-80
2024/04/01 13:49:18;;;;;;;0.75;0.50;;;12.20;32.10;;;;;;5028240;28;20026;-81
2024/04/01 13:52:16;;;;;;;0.40;0.40;;;11.60;31.40;;;;;;5028102;28;20045;-82
2024/04/01 13:55:43;;;;;;;1.00;0.50;;;11.40;38.60;;;;;;5028061;28;20112;-80
2024/04/01 13:58:57;;;;;;;0.50;0.50;;;11.60;41.30;;;;;;5026313;28;20042;-79
2024/04/01 14:02:20;;;;;;;0.50;0.50;;;11.70;34.50;;;;;;5015080;28;20099;-82
2024/04/01 14:05:19;;;;;;;;;;;11.90;31.40;;;;;;5014343;28;20041;-78
2024/04/01 14:08:24;;;;;;;0.50;0.50;;;11.60;26.80;;;;;;5014282;28;19921;-80
2024/04/01 14:11:25;;;;;;;0.60;0.60;;;11.20;31.80;;;;;;5012032;28;20055;-81
2024/04/01 14:14:49;;;;;;;1.65;0.70;;;11.30;39.00;;;;;;5001400;28;20041;-81
2024/04/01 14:17:46;;;;;;;0.40;0.40;;;11.40;39.90;;;;;;5014235;28;20044;-81
2024/04/01 14:20:48;;;;;;;0.52;0.50;;;11.30;45.00;;;;;;5002217;28;20046;-81
2024/04/01 14:23:38;;;;;;;1.73;0.60;;;10.60;40.60;;;;;;5004841;28;20115;-82
2024/04/01 14:26:24;;;;;;;0.75;0.60;;;10.40;49.90;;;;;;5015615;28;20059;-82
2024/04/01 14:29:12;;;;;;;2.35;0.60;;;10.40;60.00;;;;;;5016314;28;20042;-81
2024/04/01 14:32:02;;;;;;;0.95;0.60;;;10.30;71.10;;;;;;5016064;28;20046;-81
2024/04/01 14:34:50;;;;;;;0.50;0.50;;;10.30;79.50;;;;;;5003993;28;20128;-80
2024/04/01 14:37:37;;;;;;;0.77;0.50;;;10.90;91.20;;;;;;5022073;28;20511;-80
2024/04/01 14:40:24;;;;;;;0.60;0.60;;;11.00;81.70;;;;;;5031715;28;20056;-82
2024/04/01 14:43:12;;;;;;;1.65;1.00;;;10.70;86.70;;;;;;5034485;28;20033;-80
2024/04/01 14:46:01;;;;;;;0.50;0.50;;;10.50;93.50;;;;;;5036011;28;20045;-80
2024/04/01 14:48:50;;;;;;;0.70;0.68;;;10.30;99.90;;;;;;5023739;28;20060;-82
2024/04/01 14:51:37;;;;;;;0.80;0.80;;;10.30;99.90;;;;;;5029467;28;20055;-78
2024/04/01 14:54:26;;;;;;;0.70;0.70;;;10.30;99.90;;;;;;5030264;28;20057;-81
2024/04/01 14:57:13;;;;;;;0.63;0.60;;;10.20;99.90;;;;;;5025405;28;20105;-81
2024/04/01 15:00:01;;;;;;;1.30;0.93;;;10.30;99.90;;;;;;5030375;28;20407;-82
2024/04/01 15:02:52;;;;;;;0.45;0.45;;;10.40;99.90;;;;;;5033531;28;20041;-82